createdAt,value
2022-10-16T04:00:50.591Z,1.50
2022-10-16T04:03:22.275Z,1.40
2022-10-16T04:05:54.223Z,1.33
2022-10-16T04:08:25.874Z,1.30
2022-10-16T04:10:57.511Z,1.63
2022-10-16T04:13:29.229Z,1.27
2022-10-16T04:16:02.241Z,1.20
2022-10-16T04:18:33.891Z,1.30
2022-10-16T04:21:05.803Z,1.13
2022-10-16T04:23:37.441Z,1.20
2022-10-16T04:26:09.089Z,1.40
2022-10-16T04:28:40.802Z,1.40
2022-10-16T04:31:13.839Z,1.40
2022-10-16T04:33:45.496Z,1.47
2022-10-16T04:36:17.140Z,1.40
2022-10-16T04:38:48.790Z,1.80
2022-10-16T04:41:20.453Z,1.33
2022-10-16T04:43:52.101Z,1.17
2022-10-16T04:46:25.099Z,1.30
2022-10-16T04:48:56.728Z,1.20
2022-10-16T04:51:28.359Z,1.47
2022-10-16T04:54:00.024Z,1.30
2022-10-16T04:56:31.673Z,1.40
2022-10-16T04:59:03.307Z,1.37
2022-10-16T05:01:36.308Z,1.20
2022-10-16T05:04:07.937Z,1.27
2022-10-16T05:06:39.591Z,1.40
2022-10-16T05:09:11.282Z,1.30
2022-10-16T05:11:42.919Z,1.50
2022-10-16T05:14:14.552Z,1.23
2022-10-16T05:16:48.177Z,1.30
2022-10-16T05:19:27.311Z,1.40
2022-10-16T05:21:59.560Z,1.37
2022-10-16T05:24:31.226Z,1.30
2022-10-16T05:27:02.896Z,1.50
2022-10-16T05:29:34.553Z,1.40
2022-10-16T05:32:07.542Z,1.30
2022-10-16T05:34:39.196Z,1.20
2022-10-16T05:37:10.862Z,1.27
2022-10-16T05:39:42.519Z,1.27
2022-10-16T05:42:14.150Z,1.30
2022-10-16T05:44:45.802Z,1.50
2022-10-16T05:47:18.779Z,1.50
2022-10-16T05:49:50.421Z,1.40
2022-10-16T05:52:22.068Z,1.60
2022-10-16T05:54:53.715Z,1.50
2022-10-16T05:57:25.780Z,1.37
2022-10-16T05:59:57.803Z,1.30
2022-10-16T06:02:30.787Z,1.30
2022-10-16T06:05:02.416Z,1.40
2022-10-16T06:07:35.149Z,1.67
2022-10-16T06:10:08.256Z,1.40
2022-10-16T06:12:39.897Z,1.53
2022-10-16T06:15:11.553Z,1.50
2022-10-16T06:17:44.599Z,1.43
2022-10-16T06:20:16.237Z,1.50
2022-10-16T06:22:47.880Z,1.50
2022-10-16T06:25:19.524Z,1.60
2022-10-16T06:27:51.161Z,1.60
2022-10-16T06:30:22.833Z,1.80
2022-10-16T06:35:27.757Z,1.50
2022-10-16T06:37:59.439Z,1.87
2022-10-16T06:40:31.108Z,1.43
2022-10-16T06:43:02.747Z,1.70
2022-10-16T06:45:34.384Z,1.67
2022-10-16T06:48:07.379Z,1.80
2022-10-16T06:50:39.028Z,1.70
2022-10-16T06:53:10.710Z,1.40
2022-10-16T06:55:42.369Z,1.63
2022-10-16T06:58:14.011Z,1.80
2022-10-16T07:00:45.668Z,1.37
2022-10-16T07:03:18.645Z,1.50
2022-10-16T07:05:50.364Z,1.43
2022-10-16T07:08:21.991Z,1.57
2022-10-16T07:10:59.714Z,1.70
2022-10-16T07:13:32.915Z,1.30
2022-10-16T07:16:07.836Z,1.20
2022-10-16T07:18:40.858Z,1.50
2022-10-16T07:21:13.368Z,1.40
2022-10-16T07:23:45.008Z,1.48
2022-10-16T07:26:16.648Z,1.38
2022-10-16T07:28:48.312Z,1.42
2022-10-16T07:31:20.468Z,1.40
2022-10-16T07:33:53.513Z,1.37
2022-10-16T07:36:25.238Z,1.30
2022-10-16T07:38:59.023Z,1.77
2022-10-16T07:41:32.061Z,1.85
2022-10-16T07:44:04.073Z,1.20
2022-10-16T07:46:36.212Z,1.30
2022-10-16T07:49:09.735Z,1.50
2022-10-16T07:51:41.401Z,1.42
2022-10-16T07:54:13.559Z,1.40
2022-10-16T07:56:45.263Z,1.25
2022-10-16T07:59:16.891Z,1.60
2022-10-16T08:01:49.955Z,1.60
2022-10-16T08:04:23.094Z,1.30
2022-10-16T08:06:54.730Z,1.40
2022-10-16T08:09:26.377Z,1.60
2022-10-16T08:12:02.128Z,1.77
2022-10-16T08:14:34.177Z,1.40
2022-10-16T08:17:05.841Z,1.93
2022-10-16T08:19:38.841Z,1.30
2022-10-16T08:22:10.496Z,1.67
2022-10-16T08:24:42.158Z,1.30
2022-10-16T08:27:13.802Z,1.50
2022-10-16T08:29:45.475Z,1.52
2022-10-16T08:32:17.224Z,1.80
2022-10-16T08:34:50.243Z,1.45
2022-10-16T08:37:21.910Z,1.70
2022-10-16T08:39:53.569Z,1.27
2022-10-16T08:42:32.388Z,1.63
2022-10-16T08:45:20.584Z,1.27
2022-10-16T08:47:57.269Z,1.33
2022-10-16T08:50:31.169Z,1.20
2022-10-16T08:53:02.958Z,1.30
2022-10-16T08:55:39.288Z,1.50
2022-10-16T08:58:13.040Z,1.10
2022-10-16T09:00:46.470Z,1.43
2022-10-16T09:03:23.215Z,1.67
2022-10-16T09:06:06.317Z,1.48
2022-10-16T09:08:42.257Z,1.20
2022-10-16T09:11:15.393Z,1.17
2022-10-16T09:13:51.140Z,1.10
2022-10-16T09:16:25.057Z,1.20
2022-10-16T09:18:59.561Z,1.20
2022-10-16T09:21:33.408Z,1.25
2022-10-16T09:24:12.272Z,1.40
2022-10-16T09:26:43.976Z,1.25
2022-10-16T09:29:15.889Z,1.35
2022-10-16T09:31:47.540Z,1.10
2022-10-16T09:34:24.975Z,1.20
2022-10-16T09:36:58.008Z,1.50
2022-10-16T09:39:29.634Z,1.30
2022-10-16T09:42:01.274Z,0.90
2022-10-16T09:44:33.001Z,0.90
2022-10-16T09:47:05.331Z,1.13
2022-10-16T09:49:36.969Z,1.17
2022-10-16T09:52:13.430Z,1.30
2022-10-16T09:54:50.509Z,1.10
2022-10-16T09:57:22.284Z,1.08
2022-10-16T09:59:54.955Z,1.15
2022-10-16T10:02:29.573Z,1.00
2022-10-16T10:05:01.259Z,1.27
2022-10-16T10:07:36.644Z,1.30
2022-10-16T10:10:20.747Z,1.52
2022-10-16T10:12:52.391Z,1.10
2022-10-16T10:15:24.533Z,1.38
2022-10-16T10:17:57.001Z,1.30
2022-10-16T10:20:29.483Z,1.02
2022-10-16T10:23:02.887Z,1.30
2022-10-16T10:25:43.159Z,0.90
2022-10-16T10:28:51.391Z,1.15
2022-10-16T10:31:26.968Z,0.90
2022-10-16T10:34:00.752Z,0.93
2022-10-16T10:36:35.219Z,1.00
2022-10-16T10:39:09.431Z,0.90
2022-10-16T10:42:03.202Z,0.90
2022-10-16T10:44:43.784Z,0.80
2022-10-16T10:47:19.639Z,1.10
2022-10-16T10:49:57.008Z,1.23
2022-10-16T10:52:44.238Z,1.13
2022-10-16T10:55:21.200Z,1.20
2022-10-16T10:58:20.936Z,1.25
2022-10-16T11:00:55.605Z,0.75
2022-10-16T11:03:37.769Z,1.00
2022-10-16T11:06:11.249Z,0.88
2022-10-16T11:08:44.451Z,0.88
2022-10-16T11:11:18.695Z,0.77
2022-10-16T11:13:54.305Z,1.00
2022-10-16T11:16:28.450Z,1.10
2022-10-16T11:19:02.130Z,0.80
2022-10-16T11:21:37.775Z,0.90
2022-10-16T11:24:13.012Z,1.25
2022-10-16T11:26:46.008Z,1.10
2022-10-16T11:29:18.622Z,1.10
2022-10-16T11:31:51.331Z,0.85
2022-10-16T11:34:25.439Z,0.77
2022-10-16T11:36:58.983Z,0.80
2022-10-16T11:39:30.984Z,1.13
2022-10-16T11:42:05.622Z,0.80
2022-10-16T11:44:45.693Z,1.27
2022-10-16T11:47:57.392Z,0.90
2022-10-16T11:50:21.740Z,0.80
2022-10-16T11:52:55.508Z,1.20
2022-10-16T11:55:29.741Z,0.73
2022-10-16T11:58:04.855Z,0.80
2022-10-16T12:00:39.250Z,1.02
2022-10-16T12:03:15.723Z,1.05
2022-10-16T12:06:06.209Z,1.00
2022-10-16T12:08:37.832Z,0.95
2022-10-16T12:11:20.463Z,0.90
2022-10-16T12:14:03.999Z,0.90
2022-10-16T12:16:37.654Z,0.70
2022-10-16T12:19:13.698Z,1.10
2022-10-16T12:21:45.576Z,0.80
2022-10-16T12:24:35.094Z,0.85
2022-10-16T12:27:07.583Z,0.93
2022-10-16T12:29:41.280Z,0.90
2022-10-16T12:32:41.695Z,1.00
2022-10-16T12:35:20.172Z,0.90
2022-10-16T12:37:51.841Z,0.80
2022-10-16T12:40:28.449Z,0.80
2022-10-16T12:43:00.169Z,0.70
2022-10-16T12:45:34.295Z,0.85
2022-10-16T12:48:19.120Z,0.70
2022-10-16T12:50:50.772Z,0.98
2022-10-16T12:53:23.853Z,0.82
2022-10-16T12:56:04.509Z,1.20
2022-10-16T12:58:44.165Z,1.05
2022-10-16T13:01:27.744Z,1.15
2022-10-16T13:04:23.208Z,0.80
2022-10-16T13:06:57.792Z,1.08
2022-10-16T13:09:35.613Z,1.10
2022-10-16T13:12:16.781Z,1.20
2022-10-16T13:14:59.102Z,0.90
2022-10-16T13:17:35.863Z,1.00
2022-10-16T13:20:13.716Z,1.00
2022-10-16T13:22:51.611Z,0.98
2022-10-16T13:25:31.275Z,1.00
2022-10-16T13:28:03.676Z,1.00
2022-10-16T13:30:37.893Z,0.90
2022-10-16T13:33:15.018Z,0.88
2022-10-16T13:35:50.556Z,1.00
2022-10-16T13:38:23.547Z,1.00
2022-10-16T13:40:56.043Z,1.00
2022-10-16T13:43:29.490Z,2.00
2022-10-16T13:46:01.995Z,1.10
2022-10-16T13:48:35.040Z,1.50
2022-10-16T13:51:11.642Z,1.33
2022-10-16T13:53:43.577Z,1.02
2022-10-16T13:56:15.921Z,1.10
2022-10-16T13:58:47.596Z,1.50
2022-10-16T14:01:20.317Z,1.10
2022-10-16T14:03:53.398Z,1.20
2022-10-16T14:06:25.069Z,1.10
2022-10-16T14:09:00.034Z,1.60
2022-10-16T14:11:31.699Z,2.70
2022-10-16T14:14:03.347Z,1.60
2022-10-16T14:16:34.991Z,1.45
2022-10-16T14:19:07.989Z,3.05
2022-10-16T14:21:41.004Z,1.30
2022-10-16T14:24:12.785Z,1.63
2022-10-16T14:26:49.677Z,1.60
2022-10-16T14:29:22.449Z,1.60
2022-10-16T14:31:57.843Z,2.92
2022-10-16T14:34:32.422Z,2.13
2022-10-16T14:39:41.124Z,2.20
2022-10-16T14:42:14.952Z,2.13
2022-10-16T14:44:46.617Z,1.70
2022-10-16T14:47:18.967Z,1.58
2022-10-16T14:49:52.025Z,1.60
2022-10-16T14:52:23.680Z,1.38
2022-10-16T14:54:55.356Z,1.52
2022-10-16T14:57:28.580Z,2.13
2022-10-16T15:00:00.583Z,2.15
2022-10-16T15:02:33.035Z,2.03
2022-10-16T15:05:13.180Z,2.30
2022-10-16T15:07:44.899Z,1.30
2022-10-16T15:10:16.795Z,1.50
2022-10-16T15:12:48.614Z,1.80
2022-10-16T15:15:31.301Z,3.00
2022-10-16T15:18:03.150Z,2.22
2022-10-16T15:20:36.984Z,1.92
2022-10-16T15:23:15.255Z,3.20
2022-10-16T15:25:47.829Z,1.90
2022-10-16T15:28:20.037Z,1.55
2022-10-16T15:30:52.082Z,1.58
2022-10-16T15:33:24.693Z,1.60
2022-10-16T15:35:57.711Z,2.00
2022-10-16T15:38:29.514Z,2.50
2022-10-16T15:41:01.165Z,2.42
2022-10-16T15:43:32.811Z,2.10
2022-10-16T15:46:06.029Z,2.65
2022-10-16T15:48:37.709Z,1.80
2022-10-16T15:51:10.709Z,1.80
2022-10-16T15:53:42.419Z,1.40
2022-10-16T15:56:14.768Z,1.40
2022-10-16T15:58:46.425Z,2.17
2022-10-16T16:01:18.183Z,2.35
2022-10-16T16:03:52.895Z,3.47
2022-10-16T16:06:25.883Z,2.60
2022-10-16T16:08:57.576Z,5.25
2022-10-16T16:11:29.256Z,3.63
2022-10-16T16:14:00.892Z,3.00
2022-10-16T16:16:32.842Z,2.63
2022-10-16T16:19:07.767Z,2.65
2022-10-16T16:21:43.799Z,1.45
2022-10-16T16:24:15.477Z,1.55
2022-10-16T16:26:47.166Z,2.30
2022-10-16T16:29:18.837Z,1.65
2022-10-16T16:31:50.504Z,1.65
2022-10-16T16:34:22.144Z,5.22
2022-10-16T16:36:55.171Z,2.00
2022-10-16T16:39:27.007Z,1.52
2022-10-16T16:41:58.748Z,1.50
2022-10-16T16:44:30.411Z,1.70
2022-10-16T16:47:02.139Z,1.60
2022-10-16T16:49:33.839Z,1.58
2022-10-16T16:52:06.999Z,1.65
2022-10-16T16:54:38.626Z,1.83
2022-10-16T16:57:10.319Z,6.53
2022-10-16T16:59:42.331Z,2.55
2022-10-16T17:02:14.031Z,1.55
2022-10-16T17:04:45.741Z,1.83
2022-10-16T17:07:23.220Z,1.85
2022-10-16T17:09:55.845Z,4.13
2022-10-16T17:12:27.505Z,3.80
2022-10-16T17:14:59.174Z,3.17
2022-10-16T17:17:30.824Z,2.17
2022-10-16T17:20:02.490Z,2.70
2022-10-16T17:22:35.519Z,3.70
2022-10-16T17:25:07.637Z,3.17
2022-10-16T17:27:39.295Z,3.03
2022-10-16T17:30:10.931Z,2.38
2022-10-16T17:32:42.598Z,1.75
2022-10-16T17:35:14.276Z,2.15
2022-10-16T17:37:47.277Z,2.50
2022-10-16T17:40:18.985Z,2.20
2022-10-16T17:42:50.648Z,2.40
2022-10-16T17:45:22.333Z,2.45
2022-10-16T17:47:54.057Z,3.08
2022-10-16T17:50:25.734Z,3.70
2022-10-16T17:52:58.736Z,2.38
2022-10-16T17:55:30.381Z,2.03
2022-10-16T17:58:02.064Z,1.98
2022-10-16T18:00:33.804Z,1.73
2022-10-16T18:03:05.475Z,2.30
2022-10-16T18:05:38.209Z,1.80
2022-10-16T18:08:11.195Z,1.83
2022-10-16T18:10:46.044Z,1.73
2022-10-16T18:13:17.816Z,1.70
2022-10-16T18:15:59.561Z,1.40
2022-10-16T18:18:31.315Z,1.55
2022-10-16T18:21:04.441Z,1.42
2022-10-16T18:23:37.663Z,1.30
2022-10-16T18:26:12.091Z,1.88
2022-10-16T18:28:43.836Z,1.45
2022-10-16T18:31:16.628Z,1.52
2022-10-16T18:33:48.261Z,1.77
2022-10-16T18:36:20.866Z,1.67
2022-10-16T18:38:54.014Z,1.52
2022-10-16T18:41:25.786Z,1.75
2022-10-16T18:43:57.413Z,1.70
2022-10-16T18:46:29.141Z,1.50
2022-10-16T18:49:00.801Z,1.80
2022-10-16T18:51:33.103Z,1.73
2022-10-16T18:54:08.647Z,1.83
2022-10-16T18:56:40.412Z,2.10
2022-10-16T18:59:12.059Z,1.90
2022-10-16T19:01:43.862Z,1.77
2022-10-16T19:04:16.431Z,1.90
2022-10-16T19:06:48.946Z,1.77
2022-10-16T19:09:22.499Z,1.75
2022-10-16T19:11:54.165Z,1.77
2022-10-16T19:14:25.815Z,1.75
2022-10-16T19:16:57.477Z,2.05
2022-10-16T19:19:29.230Z,4.15
2022-10-16T19:22:00.884Z,6.43
2022-10-16T19:24:33.869Z,4.53
2022-10-16T19:27:05.536Z,3.22
2022-10-16T19:29:37.210Z,2.47
2022-10-16T19:32:08.868Z,2.75
2022-10-16T19:34:40.536Z,2.20
2022-10-16T19:37:12.193Z,2.17
2022-10-16T19:39:45.329Z,2.28
2022-10-16T19:42:17.002Z,1.80
2022-10-16T19:44:49.241Z,2.10
2022-10-16T19:47:23.014Z,1.90
2022-10-16T19:49:55.009Z,2.20
2022-10-16T19:52:26.986Z,2.45
2022-10-16T19:55:00.270Z,2.22
2022-10-16T19:57:33.451Z,2.15
2022-10-16T20:00:05.876Z,2.38
2022-10-16T20:02:37.535Z,2.03
2022-10-16T20:05:09.401Z,2.13
2022-10-16T20:07:41.046Z,2.17
2022-10-16T20:10:14.095Z,2.00
2022-10-16T20:12:45.778Z,2.30
2022-10-16T20:15:18.119Z,2.40
2022-10-16T20:17:49.786Z,2.40
2022-10-16T20:20:21.422Z,2.28
2022-10-16T20:22:53.088Z,2.08
2022-10-16T20:25:26.172Z,2.28
2022-10-16T20:27:57.877Z,2.65
2022-10-16T20:30:32.911Z,2.55
2022-10-16T20:33:04.603Z,1.88
2022-10-16T20:35:36.441Z,2.30
2022-10-16T20:38:08.209Z,2.70
2022-10-16T20:40:41.913Z,2.30
2022-10-16T20:43:14.592Z,2.30
2022-10-16T20:45:46.315Z,2.58
2022-10-16T20:48:17.990Z,2.97
2022-10-16T20:50:49.641Z,2.50
2022-10-16T20:53:21.377Z,2.80
2022-10-16T20:55:54.373Z,2.58
2022-10-16T20:58:26.070Z,2.90
2022-10-16T21:01:04.862Z,2.58
2022-10-16T21:03:36.605Z,2.60
2022-10-16T21:06:09.094Z,2.47
2022-10-16T21:08:41.749Z,2.58
2022-10-16T21:11:15.789Z,2.60
2022-10-16T21:13:47.449Z,2.72
2022-10-16T21:16:19.212Z,2.67
2022-10-16T21:18:50.867Z,2.75
2022-10-16T21:21:23.662Z,3.00
2022-10-16T21:23:56.097Z,2.83
2022-10-16T21:26:29.159Z,2.42
2022-10-16T21:29:01.887Z,3.38
2022-10-16T21:31:33.994Z,3.25
2022-10-16T21:34:05.648Z,3.08
2022-10-16T21:36:37.988Z,2.90
2022-10-16T21:39:10.593Z,3.35
2022-10-16T21:41:44.490Z,3.13
2022-10-16T21:44:16.233Z,3.40
2022-10-16T21:46:47.899Z,3.30
2022-10-16T21:49:19.567Z,3.25
2022-10-16T21:51:51.311Z,3.25
2022-10-16T21:54:23.677Z,4.30
2022-10-16T21:56:56.740Z,4.03
2022-10-16T21:59:28.688Z,3.90
